createdAt,value
2019-05-09T00:02:30.412Z,10.50
2019-05-09T00:05:00.454Z,10.50
2019-05-09T00:07:30.458Z,10.50
2019-05-09T00:10:00.500Z,10.50
2019-05-09T00:12:30.749Z,10.50
2019-05-09T00:15:04.409Z,10.50
2019-05-09T00:17:34.353Z,10.60
2019-05-09T00:20:13.636Z,10.60
2019-05-09T00:22:43.621Z,10.60
2019-05-09T00:25:13.645Z,10.60
2019-05-09T00:27:43.644Z,10.60
2019-05-09T00:30:16.006Z,10.70
2019-05-09T00:32:46.198Z,10.60
2019-05-09T00:35:25.078Z,10.60
2019-05-09T00:38:00.538Z,10.60
2019-05-09T00:40:30.725Z,10.60
2019-05-09T00:43:00.606Z,10.60
2019-05-09T00:45:49.616Z,10.60
2019-05-09T00:48:23.199Z,10.60
2019-05-09T00:50:54.453Z,10.60
2019-05-09T00:53:24.453Z,10.70
2019-05-09T00:55:54.374Z,10.70
2019-05-09T00:58:24.605Z,10.70
2019-05-09T01:00:54.747Z,10.80
2019-05-09T01:03:24.773Z,10.80
2019-05-09T01:05:54.661Z,10.80
2019-05-09T01:08:24.522Z,10.70
2019-05-09T01:11:08.210Z,10.80
2019-05-09T01:13:25.944Z,10.70
2019-05-09T01:15:55.860Z,10.70
2019-05-09T01:18:25.751Z,10.70
2019-05-09T01:20:55.887Z,10.70
2019-05-09T01:23:25.833Z,10.70
2019-05-09T01:25:55.688Z,10.70
2019-05-09T01:28:25.614Z,10.70
2019-05-09T01:30:55.521Z,10.70
2019-05-09T01:33:43.807Z,10.70
2019-05-09T01:36:15.950Z,10.70
2019-05-09T01:38:47.263Z,10.70
2019-05-09T01:41:27.895Z,10.60
2019-05-09T01:43:49.892Z,10.60
2019-05-09T01:46:20.008Z,10.60
2019-05-09T01:48:49.916Z,10.60
2019-05-09T01:51:20.012Z,10.60
2019-05-09T01:53:54.946Z,10.60
2019-05-09T01:56:24.929Z,10.60
2019-05-09T01:58:54.931Z,10.60
2019-05-09T02:01:24.882Z,10.60
2019-05-09T02:03:54.876Z,10.60
2019-05-09T02:06:28.622Z,10.60
2019-05-09T02:08:58.577Z,10.50
2019-05-09T02:11:40.173Z,10.60
2019-05-09T02:14:00.539Z,10.50
2019-05-09T02:16:48.143Z,10.60
2019-05-09T02:19:25.361Z,10.50
2019-05-09T02:21:55.667Z,10.50
2019-05-09T02:24:25.652Z,10.50
2019-05-09T02:26:55.676Z,10.50
2019-05-09T02:29:25.827Z,10.40
2019-05-09T02:31:55.757Z,10.40
2019-05-09T02:34:25.630Z,10.40
2019-05-09T02:36:58.442Z,10.40
2019-05-09T02:39:29.465Z,10.40
2019-05-09T02:42:08.443Z,10.40
2019-05-09T02:44:30.485Z,10.40
2019-05-09T02:47:09.003Z,10.30
2019-05-09T02:49:39.162Z,10.30
2019-05-09T02:52:09.789Z,10.30
2019-05-09T02:54:39.819Z,10.30
2019-05-09T02:57:09.971Z,10.30
2019-05-09T03:00:00.065Z,10.20
2019-05-09T03:03:09.197Z,10.20
2019-05-09T03:05:39.216Z,10.20
2019-05-09T03:08:09.794Z,10.20
2019-05-09T03:10:39.894Z,10.20
2019-05-09T03:13:10.249Z,10.20
2019-05-09T03:15:40.685Z,10.20
2019-05-09T03:18:10.672Z,10.20
2019-05-09T03:20:58.627Z,10.20
2019-05-09T03:23:28.845Z,10.20
2019-05-09T03:25:59.272Z,10.20
2019-05-09T03:28:50.772Z,10.20
2019-05-09T03:31:22.097Z,10.20
2019-05-09T03:33:52.031Z,10.20
2019-05-09T03:36:21.952Z,10.20
2019-05-09T03:38:51.912Z,10.20
2019-05-09T03:41:21.824Z,10.20
2019-05-09T03:43:51.756Z,10.20
2019-05-09T03:46:28.281Z,10.20
2019-05-09T03:48:59.575Z,10.20
2019-05-09T03:51:29.540Z,10.20
2019-05-09T03:53:59.550Z,10.30
2019-05-09T03:56:34.263Z,10.30
2019-05-09T03:59:04.721Z,10.30
2019-05-09T04:01:35.032Z,10.40
2019-05-09T04:04:05.023Z,10.40
2019-05-09T04:06:35.277Z,10.50
2019-05-09T04:09:07.543Z,10.50
2019-05-09T04:11:38.257Z,10.50
2019-05-09T04:14:12.596Z,10.50
2019-05-09T04:16:42.830Z,10.50
2019-05-09T04:19:12.832Z,10.50
2019-05-09T04:21:43.348Z,10.50
2019-05-09T04:24:13.552Z,10.50
2019-05-09T04:26:58.473Z,10.40
2019-05-09T04:29:28.713Z,10.50
2019-05-09T04:31:58.848Z,10.50
2019-05-09T04:34:29.145Z,10.50
2019-05-09T04:36:59.390Z,10.50
2019-05-09T04:39:29.525Z,10.50
2019-05-09T04:42:05.233Z,10.50
2019-05-09T04:44:37.466Z,10.60
2019-05-09T04:47:08.758Z,10.60
2019-05-09T04:49:44.991Z,10.70
2019-05-09T04:52:10.949Z,10.70
2019-05-09T04:54:41.070Z,10.70
2019-05-09T04:57:11.660Z,10.70
2019-05-09T04:59:41.552Z,10.80
2019-05-09T05:02:27.588Z,10.80
2019-05-09T05:04:58.743Z,10.90
2019-05-09T05:07:30.403Z,11.00
2019-05-09T05:10:00.541Z,11.00
2019-05-09T05:12:30.520Z,11.10
2019-05-09T05:15:00.570Z,11.20
2019-05-09T05:17:30.889Z,11.30
2019-05-09T05:20:01.732Z,11.50
2019-05-09T05:22:44.985Z,11.60
2019-05-09T05:25:13.844Z,11.80
2019-05-09T05:27:42.888Z,11.90
2019-05-09T05:30:11.836Z,12.10
2019-05-09T05:33:00.509Z,12.30
2019-05-09T05:35:51.837Z,12.50
2019-05-09T05:38:20.740Z,12.70
2019-05-09T05:40:50.820Z,12.90
2019-05-09T05:43:19.675Z,13.10
2019-05-09T05:46:10.524Z,13.20
2019-05-09T05:48:39.970Z,13.30
2019-05-09T05:51:10.799Z,13.40
2019-05-09T05:53:39.796Z,13.20
2019-05-09T05:56:08.758Z,13.10
2019-05-09T05:58:38.627Z,12.90
2019-05-09T06:01:08.359Z,12.70
2019-05-09T06:03:37.752Z,12.70
2019-05-09T06:06:08.786Z,12.60
2019-05-09T06:08:38.137Z,12.50
2019-05-09T06:11:11.792Z,12.60
2019-05-09T06:13:38.046Z,12.60
2019-05-09T06:16:08.786Z,12.60
2019-05-09T06:18:40.640Z,12.50
2019-05-09T06:21:09.502Z,12.50
2019-05-09T06:23:38.404Z,12.60
2019-05-09T06:26:09.953Z,12.60
2019-05-09T06:28:37.885Z,12.70
2019-05-09T06:31:07.607Z,12.70
2019-05-09T06:33:44.961Z,12.70
2019-05-09T06:36:08.011Z,12.70
2019-05-09T06:38:37.783Z,12.70
2019-05-09T06:41:08.871Z,12.70
2019-05-09T06:43:39.522Z,12.70
2019-05-09T06:46:22.100Z,12.70
2019-05-09T06:48:51.145Z,12.70
2019-05-09T06:51:21.372Z,12.90
2019-05-09T06:53:50.399Z,13.00
2019-05-09T06:56:19.241Z,13.20
2019-05-09T06:58:48.255Z,13.50
2019-05-09T07:01:48.509Z,14.00
2019-05-09T07:04:47.577Z,14.50
2019-05-09T07:07:48.194Z,16.50
2019-05-09T07:10:21.907Z,19.30
2019-05-09T07:12:51.076Z,22.30
2019-05-09T07:15:23.130Z,22.90
2019-05-09T07:17:54.855Z,22.40
2019-05-09T07:20:28.501Z,22.40
2019-05-09T07:23:00.437Z,22.70
2019-05-09T07:26:03.691Z,22.80
2019-05-09T07:28:31.019Z,22.90
2019-05-09T07:31:18.044Z,22.70
2019-05-09T07:34:01.819Z,22.20
2019-05-09T07:36:38.513Z,22.80
2019-05-09T07:39:09.161Z,22.40
2019-05-09T07:41:38.497Z,21.90
2019-05-09T07:44:10.400Z,21.40
2019-05-09T07:46:58.004Z,20.80
2019-05-09T07:49:29.312Z,20.40
2019-05-09T07:52:06.593Z,19.60
2019-05-09T07:54:32.892Z,18.80
2019-05-09T07:57:01.768Z,18.20
2019-05-09T07:59:30.676Z,17.50
2019-05-09T08:01:59.648Z,16.80
2019-05-09T08:04:28.863Z,16.30
2019-05-09T08:06:58.029Z,15.90
2019-05-09T08:09:28.106Z,15.70
2019-05-09T08:12:00.756Z,15.70
2019-05-09T08:14:29.736Z,16.30
2019-05-09T08:16:58.648Z,17.30
2019-05-09T08:19:29.169Z,19.10
2019-05-09T08:21:58.000Z,21.00
2019-05-09T08:24:32.265Z,22.00
2019-05-09T08:26:58.243Z,22.90
2019-05-09T08:29:28.156Z,23.00
2019-05-09T08:31:58.244Z,22.50
2019-05-09T08:34:28.504Z,21.90
2019-05-09T08:36:58.185Z,21.40
2019-05-09T08:39:27.880Z,22.30
2019-05-09T08:41:59.203Z,23.50
2019-05-09T08:44:30.209Z,27.60
2019-05-09T08:46:58.627Z,30.80
2019-05-09T08:49:37.322Z,34.30
2019-05-09T08:52:16.131Z,35.40
2019-05-09T08:54:50.295Z,34.40
2019-05-09T08:57:19.291Z,32.20
2019-05-09T08:59:50.661Z,29.10
2019-05-09T09:02:22.846Z,28.00
2019-05-09T09:04:51.742Z,27.70
2019-05-09T09:07:20.629Z,27.40
2019-05-09T09:09:49.679Z,26.40
2019-05-09T09:12:29.423Z,25.30
2019-05-09T09:14:49.265Z,24.40
2019-05-09T09:17:18.809Z,24.70
2019-05-09T09:19:48.211Z,25.40
2019-05-09T09:22:17.959Z,24.80
2019-05-09T09:24:48.320Z,23.50
2019-05-09T09:27:18.193Z,22.60
2019-05-09T09:29:54.599Z,22.20
2019-05-09T09:32:23.553Z,21.70
2019-05-09T09:34:52.796Z,21.30
2019-05-09T09:37:23.947Z,22.20
2019-05-09T09:39:58.227Z,24.00
2019-05-09T09:42:28.245Z,28.40
2019-05-09T09:44:58.697Z,32.50
2019-05-09T09:47:30.140Z,34.10
2019-05-09T09:50:04.094Z,34.20
2019-05-09T09:52:38.457Z,35.00
2019-05-09T09:55:09.058Z,34.00
2019-05-09T09:57:38.165Z,29.80
2019-05-09T10:00:25.997Z,28.40
2019-05-09T10:02:54.940Z,26.60
2019-05-09T10:05:23.870Z,24.10
2019-05-09T10:07:52.748Z,22.60
2019-05-09T10:10:32.689Z,21.60
2019-05-09T10:13:04.042Z,20.80
2019-05-09T10:15:38.424Z,23.70
2019-05-09T10:18:27.570Z,28.40
2019-05-09T10:21:05.043Z,32.80
2019-05-09T10:23:33.973Z,35.30
2019-05-09T10:26:03.117Z,35.30
2019-05-09T10:28:37.839Z,32.80
2019-05-09T10:31:06.129Z,33.40
2019-05-09T10:33:37.504Z,31.90
2019-05-09T10:36:08.538Z,30.90
2019-05-09T10:38:39.776Z,30.70
2019-05-09T10:41:11.359Z,28.40
2019-05-09T10:44:08.309Z,26.10
2019-05-09T10:46:56.760Z,26.60
2019-05-09T10:49:21.671Z,27.60
2019-05-09T10:51:51.528Z,26.80
2019-05-09T10:54:20.633Z,25.10
2019-05-09T10:56:51.484Z,23.20
2019-05-09T10:59:20.921Z,21.50
2019-05-09T11:01:51.288Z,21.00
2019-05-09T11:04:20.274Z,21.20
2019-05-09T11:06:49.280Z,21.30
2019-05-09T11:09:18.483Z,21.70
2019-05-09T11:11:48.499Z,21.60
2019-05-09T11:14:32.545Z,21.20
2019-05-09T11:16:54.283Z,20.90
2019-05-09T11:19:25.058Z,21.20
2019-05-09T11:21:58.474Z,21.60
2019-05-09T11:24:57.762Z,21.70
2019-05-09T11:28:06.847Z,21.70
2019-05-09T11:31:20.151Z,21.90
2019-05-09T11:33:54.541Z,21.70
2019-05-09T11:36:32.819Z,21.10
2019-05-09T11:39:41.787Z,21.00
2019-05-09T11:42:06.848Z,20.70
2019-05-09T11:44:38.523Z,20.50
2019-05-09T11:47:28.623Z,20.20
2019-05-09T11:50:18.985Z,20.00
2019-05-09T11:53:11.459Z,19.80
2019-05-09T11:55:58.601Z,19.70
2019-05-09T12:02:14.921Z,19.40
2019-05-09T12:04:48.987Z,19.60
2019-05-09T12:07:38.713Z,19.70
2019-05-09T12:10:29.011Z,19.90
2019-05-09T12:17:05.316Z,20.40
2019-05-09T12:22:19.147Z,19.70
2019-05-09T12:24:48.145Z,19.60
2019-05-09T12:27:18.903Z,19.70
2019-05-09T12:29:48.407Z,19.60
2019-05-09T12:32:18.807Z,19.70
2019-05-09T12:34:49.556Z,19.90
2019-05-09T12:37:18.454Z,20.00
2019-05-09T12:39:50.583Z,20.10
2019-05-09T12:42:19.708Z,20.00
2019-05-09T12:44:49.659Z,19.80
2019-05-09T12:47:22.877Z,19.70
2019-05-09T12:50:00.392Z,19.60
2019-05-09T12:52:28.605Z,19.80
2019-05-09T12:54:58.281Z,19.90
2019-05-09T13:03:38.023Z,20.00
2019-05-09T13:06:20.152Z,20.00
2019-05-09T13:08:59.810Z,19.90
2019-05-09T13:11:33.754Z,19.80
2019-05-09T13:14:09.941Z,19.80
2019-05-09T13:16:53.833Z,19.70
2019-05-09T13:19:24.233Z,19.60
2019-05-09T13:22:04.533Z,19.50
2019-05-09T13:24:34.813Z,19.20
2019-05-09T13:27:04.010Z,19.00
2019-05-09T13:29:38.083Z,18.70
2019-05-09T13:32:08.817Z,18.60
2019-05-09T13:34:38.277Z,18.70
2019-05-09T13:37:09.091Z,18.70
2019-05-09T13:39:39.921Z,18.90
2019-05-09T13:42:09.105Z,19.00
2019-05-09T13:45:13.225Z,19.10
2019-05-09T13:47:28.055Z,19.30
2019-05-09T13:49:59.314Z,19.60
2019-05-09T13:52:28.458Z,19.80
2019-05-09T13:54:59.288Z,19.70
2019-05-09T13:57:31.387Z,19.40
2019-05-09T14:00:04.173Z,19.40
2019-05-09T14:02:33.239Z,19.50
2019-05-09T14:05:09.283Z,19.60
2019-05-09T14:07:54.441Z,19.30
2019-05-09T14:10:20.709Z,19.20
2019-05-09T14:13:05.545Z,19.30
2019-05-09T14:15:27.402Z,19.50
2019-05-09T14:17:54.520Z,19.50
2019-05-09T14:20:24.075Z,19.40
2019-05-09T14:22:57.594Z,19.60
2019-05-09T14:25:29.090Z,19.90
2019-05-09T14:28:14.674Z,20.00
2019-05-09T14:30:51.550Z,19.90
2019-05-09T14:33:20.597Z,19.80
2019-05-09T14:35:49.740Z,19.60
2019-05-09T14:38:39.301Z,19.50
2019-05-09T14:41:12.094Z,19.40
2019-05-09T14:43:43.629Z,19.40
2019-05-09T14:46:14.860Z,19.20
2019-05-09T14:48:45.028Z,19.20
2019-05-09T14:51:14.170Z,19.40
2019-05-09T14:54:08.334Z,19.60
2019-05-09T14:56:41.805Z,19.80
2019-05-09T14:59:14.216Z,19.60
2019-05-09T15:01:46.026Z,19.50
2019-05-09T15:04:18.949Z,19.30
2019-05-09T15:06:48.838Z,19.00
2019-05-09T15:09:18.459Z,18.80
2019-05-09T15:11:48.511Z,18.70
2019-05-09T15:14:19.075Z,18.60
2019-05-09T15:16:50.815Z,18.50
2019-05-09T15:19:22.789Z,18.40
2019-05-09T15:21:52.532Z,18.40
2019-05-09T15:24:21.412Z,18.60
2019-05-09T15:26:54.602Z,18.60
2019-05-09T15:29:25.066Z,18.50
2019-05-09T15:32:20.136Z,18.50
2019-05-09T15:34:49.069Z,18.60
2019-05-09T15:37:51.548Z,18.60
2019-05-09T15:40:20.655Z,18.50
2019-05-09T15:43:00.428Z,18.50
2019-05-09T15:45:29.753Z,18.40
2019-05-09T15:47:58.752Z,18.40
2019-05-09T15:50:30.660Z,18.60
2019-05-09T15:53:01.813Z,18.60
2019-05-09T15:55:31.535Z,18.60
2019-05-09T15:58:00.670Z,18.60
2019-05-09T16:00:30.008Z,18.50
2019-05-09T16:03:07.816Z,18.30
2019-05-09T16:05:39.883Z,18.20
2019-05-09T16:08:11.548Z,18.10
2019-05-09T16:10:52.160Z,18.00
2019-05-09T16:13:23.683Z,17.90
2019-05-09T16:15:57.332Z,17.90
2019-05-09T16:18:28.832Z,17.80
2019-05-09T16:20:58.127Z,17.70
2019-05-09T16:23:29.031Z,17.60
2019-05-09T16:25:58.724Z,17.50
2019-05-09T16:28:27.760Z,17.50
2019-05-09T16:30:58.581Z,17.50
2019-05-09T16:33:27.966Z,17.40
2019-05-09T16:35:57.330Z,17.40
2019-05-09T16:38:42.172Z,17.30
2019-05-09T16:41:10.647Z,17.20
2019-05-09T16:43:43.371Z,17.10
2019-05-09T16:46:12.505Z,17.00
2019-05-09T16:48:41.455Z,16.90
2019-05-09T16:51:10.872Z,16.90
2019-05-09T16:53:51.466Z,16.90
2019-05-09T16:56:20.317Z,17.00
2019-05-09T16:58:57.835Z,17.00
2019-05-09T17:01:31.173Z,16.80
2019-05-09T17:04:03.214Z,16.70
2019-05-09T17:06:40.163Z,16.60
2019-05-09T17:09:18.172Z,16.60
2019-05-09T17:14:46.357Z,16.60
2019-05-09T17:17:27.844Z,16.60
2019-05-09T17:20:14.795Z,16.60
2019-05-09T17:23:13.756Z,16.50
2019-05-09T17:25:40.073Z,16.40
2019-05-09T17:28:12.891Z,16.40
2019-05-09T17:30:52.809Z,16.50
2019-05-09T17:33:34.829Z,16.40
2019-05-09T17:36:07.429Z,16.40
2019-05-09T17:38:47.853Z,16.40
2019-05-09T17:41:20.367Z,16.40
2019-05-09T17:44:07.705Z,16.30
2019-05-09T17:46:41.650Z,16.40
2019-05-09T17:49:20.724Z,16.40
2019-05-09T17:51:50.088Z,16.40
2019-05-09T17:54:21.789Z,16.40
2019-05-09T17:56:57.337Z,16.30
2019-05-09T17:59:28.952Z,16.20
2019-05-09T18:01:58.048Z,16.20
2019-05-09T18:04:37.885Z,16.10
2019-05-09T18:07:23.516Z,16.00
2019-05-09T18:09:58.434Z,15.90
2019-05-09T18:12:38.254Z,15.90
2019-05-09T18:15:28.097Z,15.90
2019-05-09T18:17:58.911Z,15.80
2019-05-09T18:20:28.519Z,15.70
2019-05-09T18:23:08.242Z,15.70
2019-05-09T18:25:40.927Z,15.70
2019-05-09T18:28:17.524Z,15.70
2019-05-09T18:30:47.780Z,15.70
2019-05-09T18:33:23.198Z,15.60
2019-05-09T18:35:58.553Z,15.50
2019-05-09T18:38:32.198Z,15.50
2019-05-09T18:41:07.049Z,15.40
2019-05-09T18:43:35.985Z,15.40
2019-05-09T18:46:05.206Z,15.30
2019-05-09T18:48:34.464Z,15.20
2019-05-09T18:51:16.939Z,15.20
2019-05-09T18:53:51.061Z,15.10
2019-05-09T18:56:22.033Z,15.00
2019-05-09T18:58:51.374Z,14.90
2019-05-09T19:01:20.438Z,14.80
2019-05-09T19:03:58.234Z,14.80
2019-05-09T19:06:30.228Z,14.70
2019-05-09T19:08:59.203Z,14.60
2019-05-09T19:11:33.459Z,14.50
2019-05-09T19:14:06.221Z,14.40
2019-05-09T19:16:58.782Z,14.20
2019-05-09T19:19:46.257Z,14.10
2019-05-09T19:22:22.269Z,13.90
2019-05-09T19:24:48.140Z,13.80
2019-05-09T19:27:20.121Z,13.70
2019-05-09T19:29:49.386Z,13.60
2019-05-09T19:32:18.415Z,13.60
2019-05-09T19:34:47.560Z,13.50
2019-05-09T19:37:17.407Z,13.40
2019-05-09T19:39:47.501Z,13.40
2019-05-09T19:42:17.606Z,13.30
2019-05-09T19:44:47.609Z,13.20
2019-05-09T19:47:19.948Z,13.10
2019-05-09T19:49:49.924Z,13.10
2019-05-09T19:52:37.767Z,13.00
2019-05-09T19:55:02.538Z,12.90
2019-05-09T19:57:32.558Z,12.80
2019-05-09T20:00:02.792Z,12.70
2019-05-09T20:02:35.513Z,12.60
2019-05-09T20:05:07.288Z,12.50
2019-05-09T20:07:38.581Z,12.40
2019-05-09T20:10:26.644Z,12.40
2019-05-09T20:13:14.355Z,12.30
2019-05-09T20:15:49.111Z,12.30
2019-05-09T20:18:20.830Z,12.20
2019-05-09T20:20:51.437Z,12.10
2019-05-09T20:23:22.094Z,12.00
2019-05-09T20:26:05.679Z,12.00
2019-05-09T20:28:37.346Z,12.00
2019-05-09T20:31:06.817Z,12.00
2019-05-09T20:33:46.226Z,11.90
2019-05-09T20:36:19.888Z,11.90
2019-05-09T20:38:52.144Z,11.80
2019-05-09T20:41:29.569Z,11.80
2019-05-09T20:44:06.828Z,11.80
2019-05-09T20:46:39.156Z,11.60
2019-05-09T20:49:19.693Z,11.60
2019-05-09T20:51:56.868Z,11.50
2019-05-09T20:54:31.690Z,11.60
2019-05-09T20:57:02.181Z,11.50
2019-05-09T20:59:32.810Z,11.50
2019-05-09T21:02:03.445Z,11.50
2019-05-09T21:04:36.848Z,11.40
2019-05-09T21:07:07.776Z,11.40
2019-05-09T21:09:41.163Z,11.40
2019-05-09T21:12:16.345Z,11.40
2019-05-09T21:14:49.671Z,11.30
2019-05-09T21:17:19.859Z,11.20
2019-05-09T21:19:50.001Z,11.20
2019-05-09T21:22:20.375Z,11.20
2019-05-09T21:24:55.937Z,11.10
2019-05-09T21:27:23.688Z,11.10
2019-05-09T21:29:57.778Z,11.00
2019-05-09T21:32:28.126Z,11.00
2019-05-09T21:34:58.354Z,11.00
2019-05-09T21:37:28.563Z,11.00
2019-05-09T21:39:58.475Z,10.90
2019-05-09T21:42:28.365Z,10.90
2019-05-09T21:44:58.475Z,11.00
2019-05-09T21:47:28.843Z,11.00
2019-05-09T21:49:59.198Z,11.10
2019-05-09T21:52:29.168Z,11.10
2019-05-09T21:54:59.306Z,11.10
2019-05-09T21:57:29.353Z,11.10
2019-05-09T21:59:59.306Z,11.00
2019-05-09T22:02:34.013Z,11.00
2019-05-09T22:05:05.416Z,11.00
2019-05-09T22:07:35.471Z,11.00
2019-05-09T22:10:06.783Z,10.90
2019-05-09T22:12:37.357Z,10.90
2019-05-09T22:15:07.924Z,10.90
2019-05-09T22:17:38.899Z,10.80
2019-05-09T22:20:09.903Z,10.80
2019-05-09T22:22:39.787Z,10.70
2019-05-09T22:25:10.611Z,10.60
2019-05-09T22:27:40.908Z,10.60
2019-05-09T22:30:13.639Z,10.60
2019-05-09T22:32:43.748Z,10.60
2019-05-09T22:35:14.981Z,10.50
2019-05-09T22:37:45.041Z,10.50
2019-05-09T22:40:15.622Z,10.50
2019-05-09T22:42:45.581Z,10.40
2019-05-09T22:45:15.991Z,10.40
2019-05-09T22:47:45.915Z,10.40
2019-05-09T22:50:15.893Z,10.30
2019-05-09T22:52:45.842Z,10.20
2019-05-09T22:55:16.424Z,10.20
2019-05-09T22:57:49.096Z,10.10
2019-05-09T23:00:19.513Z,10.10
2019-05-09T23:02:52.614Z,10.00
2019-05-09T23:05:23.090Z,10.00
2019-05-09T23:07:53.977Z,9.90
2019-05-09T23:10:25.157Z,9.90
2019-05-09T23:12:56.707Z,9.90
2019-05-09T23:15:27.050Z,9.90
2019-05-09T23:17:57.124Z,9.90
2019-05-09T23:20:46.673Z,9.80
2019-05-09T23:23:34.524Z,9.80
2019-05-09T23:26:04.511Z,9.80
2019-05-09T23:28:34.484Z,9.80
2019-05-09T23:31:07.853Z,9.70
2019-05-09T23:33:39.956Z,9.70
2019-05-09T23:36:09.929Z,9.70
2019-05-09T23:38:57.890Z,9.70
2019-05-09T23:41:27.758Z,9.70
2019-05-09T23:43:57.653Z,9.60
2019-05-09T23:46:27.591Z,9.60
2019-05-09T23:48:57.594Z,9.50
2019-05-09T23:51:44.875Z,9.60
2019-05-09T23:54:45.148Z,9.50
2019-05-09T23:57:24.222Z,9.50
